sensor_id;sensor_type;location;lat;lon;timestamp;P1;durP1;ratioP1;P2;durP2;ratioP2
27869;SDS011;15225;50.730;4.244;2022-08-21T09:27:42;6.50;;;2.45;;
27869;SDS011;15225;50.730;4.244;2022-08-21T09:30:09;5.57;;;1.80;;
27869;SDS011;15225;50.730;4.244;2022-08-21T09:32:36;7.95;;;2.35;;
27869;SDS011;15225;50.730;4.244;2022-08-21T09:35:16;4.35;;;2.00;;
27869;SDS011;15225;50.730;4.244;2022-08-21T09:43:23;8.93;;;2.53;;
27869;SDS011;15225;50.730;4.244;2022-08-21T09:46:01;7.80;;;2.35;;
27869;SDS011;15225;50.730;4.244;2022-08-21T09:48:29;11.98;;;2.50;;
27869;SDS011;15225;50.730;4.244;2022-08-21T09:51:06;9.15;;;3.20;;
27869;SDS011;15225;50.730;4.244;2022-08-21T09:53:38;5.20;;;1.92;;
27869;SDS011;15225;50.730;4.244;2022-08-21T09:56:25;6.68;;;2.10;;
27869;SDS011;15225;50.730;4.244;2022-08-21T09:59:29;9.20;;;2.03;;
27869;SDS011;15225;50.730;4.244;2022-08-21T10:01:58;9.35;;;2.90;;
27869;SDS011;15225;50.730;4.244;2022-08-21T10:04:31;8.18;;;2.28;;
27869;SDS011;15225;50.730;4.244;2022-08-21T10:07:09;10.35;;;2.70;;
27869;SDS011;15225;50.730;4.244;2022-08-21T10:09:37;8.57;;;2.67;;
27869;SDS011;15225;50.730;4.244;2022-08-21T10:22:47;10.00;;;2.40;;
27869;SDS011;15225;50.730;4.244;2022-08-21T10:25:41;9.25;;;2.30;;
27869;SDS011;15225;50.730;4.244;2022-08-21T10:28:23;7.60;;;2.60;;
27869;SDS011;15225;50.730;4.244;2022-08-21T10:31:25;6.32;;;2.13;;
27869;SDS011;15225;50.730;4.244;2022-08-21T10:34:05;7.72;;;2.58;;
27869;SDS011;15225;50.730;4.244;2022-08-21T10:42:07;9.95;;;2.80;;
27869;SDS011;15225;50.730;4.244;2022-08-21T10:45:22;7.65;;;2.63;;
27869;SDS011;15225;50.730;4.244;2022-08-21T10:47:34;9.60;;;3.00;;
27869;SDS011;15225;50.730;4.244;2022-08-21T10:53:11;6.97;;;2.40;;
27869;SDS011;15225;50.730;4.244;2022-08-21T10:55:52;10.95;;;2.72;;
27869;SDS011;15225;50.730;4.244;2022-08-21T12:02:33;9.95;;;2.42;;
27869;SDS011;15225;50.730;4.244;2022-08-21T12:05:06;9.60;;;2.95;;
27869;SDS011;15225;50.730;4.244;2022-08-21T12:07:37;7.82;;;2.50;;
27869;SDS011;15225;50.730;4.244;2022-08-21T12:10:16;13.05;;;3.33;;
27869;SDS011;15225;50.730;4.244;2022-08-21T12:12:46;10.25;;;2.70;;
27869;SDS011;15225;50.730;4.244;2022-08-21T12:20:38;6.57;;;2.20;;
27869;SDS011;15225;50.730;4.244;2022-08-21T12:25:39;15.25;;;2.45;;
27869;SDS011;15225;50.730;4.244;2022-08-21T12:28:08;12.50;;;2.80;;
27869;SDS011;15225;50.730;4.244;2022-08-21T12:30:38;7.95;;;2.53;;
27869;SDS011;15225;50.730;4.244;2022-08-21T12:33:18;8.05;;;2.65;;
27869;SDS011;15225;50.730;4.244;2022-08-21T12:36:01;11.98;;;3.17;;
27869;SDS011;15225;50.730;4.244;2022-08-21T12:39:00;14.30;;;2.63;;
27869;SDS011;15225;50.730;4.244;2022-08-21T12:41:45;9.65;;;2.58;;
27869;SDS011;15225;50.730;4.244;2022-08-21T12:44:43;9.02;;;2.45;;
27869;SDS011;15225;50.730;4.244;2022-08-21T12:47:29;12.63;;;2.85;;
27869;SDS011;15225;50.730;4.244;2022-08-21T12:54:59;9.63;;;2.17;;
27869;SDS011;15225;50.730;4.244;2022-08-21T12:57:26;10.50;;;2.80;;
27869;SDS011;15225;50.730;4.244;2022-08-21T13:02:23;6.57;;;2.10;;
27869;SDS011;15225;50.730;4.244;2022-08-21T13:05:03;15.05;;;2.90;;
27869;SDS011;15225;50.730;4.244;2022-08-21T13:07:31;13.50;;;3.53;;
27869;SDS011;15225;50.730;4.244;2022-08-21T13:10:04;11.63;;;2.67;;
27869;SDS011;15225;50.730;4.244;2022-08-21T13:12:32;14.10;;;3.28;;
27869;SDS011;15225;50.730;4.244;2022-08-21T13:15:02;15.40;;;3.15;;
27869;SDS011;15225;50.730;4.244;2022-08-21T13:17:31;10.15;;;2.53;;
27869;SDS011;15225;50.730;4.244;2022-08-21T13:22:28;13.77;;;2.88;;
27869;SDS011;15225;50.730;4.244;2022-08-21T13:24:55;14.95;;;2.90;;
27869;SDS011;15225;50.730;4.244;2022-08-21T13:27:28;10.32;;;3.13;;
27869;SDS011;15225;50.730;4.244;2022-08-21T13:30:03;11.70;;;2.88;;
27869;SDS011;15225;50.730;4.244;2022-08-21T13:35:47;10.10;;;2.67;;
27869;SDS011;15225;50.730;4.244;2022-08-21T13:38:01;13.35;;;3.10;;
27869;SDS011;15225;50.730;4.244;2022-08-21T13:40:30;13.00;;;2.85;;
27869;SDS011;15225;50.730;4.244;2022-08-21T13:43:04;9.82;;;2.22;;
27869;SDS011;15225;50.730;4.244;2022-08-21T13:45:37;7.30;;;2.72;;
27869;SDS011;15225;50.730;4.244;2022-08-21T13:48:03;11.73;;;2.45;;
27869;SDS011;15225;50.730;4.244;2022-08-21T13:50:30;11.07;;;2.60;;
27869;SDS011;15225;50.730;4.244;2022-08-21T13:53:19;9.30;;;2.63;;
27869;SDS011;15225;50.730;4.244;2022-08-21T13:55:47;14.82;;;3.10;;
27869;SDS011;15225;50.730;4.244;2022-08-21T13:58:13;10.60;;;2.83;;
27869;SDS011;15225;50.730;4.244;2022-08-21T14:00:50;10.32;;;2.15;;
27869;SDS011;15225;50.730;4.244;2022-08-21T14:03:30;9.43;;;3.55;;
27869;SDS011;15225;50.730;4.244;2022-08-21T14:05:56;11.52;;;3.30;;
27869;SDS011;15225;50.730;4.244;2022-08-21T14:10:59;11.82;;;3.10;;
27869;SDS011;15225;50.730;4.244;2022-08-21T14:13:38;10.40;;;3.05;;
27869;SDS011;15225;50.730;4.244;2022-08-21T14:16:15;13.43;;;2.80;;
27869;SDS011;15225;50.730;4.244;2022-08-21T14:18:50;7.90;;;2.70;;
27869;SDS011;15225;50.730;4.244;2022-08-21T14:21:37;10.45;;;2.58;;
27869;SDS011;15225;50.730;4.244;2022-08-21T14:26:49;10.27;;;2.55;;
27869;SDS011;15225;50.730;4.244;2022-08-21T14:29:17;11.25;;;3.63;;
27869;SDS011;15225;50.730;4.244;2022-08-21T14:31:52;15.45;;;4.50;;
27869;SDS011;15225;50.730;4.244;2022-08-21T14:34:20;9.38;;;2.80;;
27869;SDS011;15225;50.730;4.244;2022-08-21T14:36:48;15.30;;;2.85;;
27869;SDS011;15225;50.730;4.244;2022-08-21T14:39:16;7.38;;;2.78;;
27869;SDS011;15225;50.730;4.244;2022-08-21T14:41:42;9.50;;;2.63;;
27869;SDS011;15225;50.730;4.244;2022-08-21T14:44:11;11.35;;;2.70;;
27869;SDS011;15225;50.730;4.244;2022-08-21T14:46:37;10.05;;;2.53;;
27869;SDS011;15225;50.730;4.244;2022-08-21T14:49:03;9.52;;;3.00;;
27869;SDS011;15225;50.730;4.244;2022-08-21T14:51:29;11.50;;;2.78;;
27869;SDS011;15225;50.730;4.244;2022-08-21T14:53:55;11.73;;;3.15;;
27869;SDS011;15225;50.730;4.244;2022-08-21T14:56:21;9.57;;;2.17;;
27869;SDS011;15225;50.730;4.244;2022-08-21T14:58:48;11.98;;;2.63;;
27869;SDS011;15225;50.730;4.244;2022-08-21T15:01:16;14.25;;;2.92;;
27869;SDS011;15225;50.730;4.244;2022-08-21T15:03:43;11.55;;;2.35;;
27869;SDS011;15225;50.730;4.244;2022-08-21T15:06:10;12.43;;;2.92;;
27869;SDS011;15225;50.730;4.244;2022-08-21T15:08:36;9.70;;;2.35;;
27869;SDS011;15225;50.730;4.244;2022-08-21T15:11:03;15.73;;;2.70;;
27869;SDS011;15225;50.730;4.244;2022-08-21T15:13:29;9.27;;;2.60;;
27869;SDS011;15225;50.730;4.244;2022-08-21T15:15:56;8.65;;;2.60;;
27869;SDS011;15225;50.730;4.244;2022-08-21T15:18:26;13.15;;;3.03;;
27869;SDS011;15225;50.730;4.244;2022-08-21T15:20:54;9.25;;;2.70;;
27869;SDS011;15225;50.730;4.244;2022-08-21T15:23:20;12.20;;;2.83;;
27869;SDS011;15225;50.730;4.244;2022-08-21T15:25:47;14.38;;;2.63;;
27869;SDS011;15225;50.730;4.244;2022-08-21T15:28:14;13.10;;;2.40;;
27869;SDS011;15225;50.730;4.244;2022-08-21T15:30:41;10.55;;;2.53;;
27869;SDS011;15225;50.730;4.244;2022-08-21T15:33:07;9.32;;;3.00;;
27869;SDS011;15225;50.730;4.244;2022-08-21T15:35:33;7.75;;;3.08;;
27869;SDS011;15225;50.730;4.244;2022-08-21T15:38:00;11.02;;;2.63;;
27869;SDS011;15225;50.730;4.244;2022-08-21T15:40:26;11.18;;;3.10;;
27869;SDS011;15225;50.730;4.244;2022-08-21T15:42:55;26.08;;;3.63;;
27869;SDS011;15225;50.730;4.244;2022-08-21T15:45:23;8.60;;;2.55;;
27869;SDS011;15225;50.730;4.244;2022-08-21T15:47:50;8.23;;;2.58;;
27869;SDS011;15225;50.730;4.244;2022-08-21T15:50:16;10.02;;;2.92;;
27869;SDS011;15225;50.730;4.244;2022-08-21T15:52:42;11.68;;;2.58;;
27869;SDS011;15225;50.730;4.244;2022-08-21T15:55:11;8.20;;;2.63;;
27869;SDS011;15225;50.730;4.244;2022-08-21T15:57:38;16.67;;;3.33;;
27869;SDS011;15225;50.730;4.244;2022-08-21T16:00:15;10.80;;;2.75;;
27869;SDS011;15225;50.730;4.244;2022-08-21T16:02:47;8.38;;;2.50;;
27869;SDS011;15225;50.730;4.244;2022-08-21T16:05:16;12.98;;;2.67;;
27869;SDS011;15225;50.730;4.244;2022-08-21T16:07:43;9.82;;;2.60;;
27869;SDS011;15225;50.730;4.244;2022-08-21T16:10:11;11.38;;;2.67;;
27869;SDS011;15225;50.730;4.244;2022-08-21T16:12:38;13.90;;;3.17;;
27869;SDS011;15225;50.730;4.244;2022-08-21T16:15:12;16.25;;;3.40;;
27869;SDS011;15225;50.730;4.244;2022-08-21T16:17:39;6.55;;;2.25;;
27869;SDS011;15225;50.730;4.244;2022-08-21T16:20:09;12.68;;;2.40;;
27869;SDS011;15225;50.730;4.244;2022-08-21T16:22:37;10.18;;;3.72;;
27869;SDS011;15225;50.730;4.244;2022-08-21T16:25:04;7.85;;;2.45;;
27869;SDS011;15225;50.730;4.244;2022-08-21T16:27:31;11.90;;;2.47;;
27869;SDS011;15225;50.730;4.244;2022-08-21T16:29:58;9.18;;;2.65;;
27869;SDS011;15225;50.730;4.244;2022-08-21T16:32:24;8.38;;;2.65;;
27869;SDS011;15225;50.730;4.244;2022-08-21T16:34:50;15.75;;;3.03;;
27869;SDS011;15225;50.730;4.244;2022-08-21T16:37:16;8.88;;;2.67;;
27869;SDS011;15225;50.730;4.244;2022-08-21T16:39:42;9.60;;;2.72;;
27869;SDS011;15225;50.730;4.244;2022-08-21T16:42:12;10.45;;;2.60;;
27869;SDS011;15225;50.730;4.244;2022-08-21T16:44:42;9.75;;;2.22;;
27869;SDS011;15225;50.730;4.244;2022-08-21T16:47:08;11.15;;;3.20;;
27869;SDS011;15225;50.730;4.244;2022-08-21T16:49:34;9.00;;;3.15;;
27869;SDS011;15225;50.730;4.244;2022-08-21T16:51:59;9.40;;;3.67;;
27869;SDS011;15225;50.730;4.244;2022-08-21T16:54:25;10.82;;;2.97;;
27869;SDS011;15225;50.730;4.244;2022-08-21T16:56:51;11.25;;;2.65;;
27869;SDS011;15225;50.730;4.244;2022-08-21T16:59:17;9.98;;;2.53;;
27869;SDS011;15225;50.730;4.244;2022-08-21T17:01:43;14.48;;;3.28;;
27869;SDS011;15225;50.730;4.244;2022-08-21T17:04:09;9.13;;;3.03;;
27869;SDS011;15225;50.730;4.244;2022-08-21T17:06:36;8.15;;;2.88;;
27869;SDS011;15225;50.730;4.244;2022-08-21T17:09:02;10.07;;;2.40;;
27869;SDS011;15225;50.730;4.244;2022-08-21T17:14:04;9.57;;;3.05;;
27869;SDS011;15225;50.730;4.244;2022-08-21T17:16:39;17.92;;;3.28;;
27869;SDS011;15225;50.730;4.244;2022-08-21T17:21:34;13.80;;;2.97;;
27869;SDS011;15225;50.730;4.244;2022-08-21T17:24:00;12.88;;;2.70;;
27869;SDS011;15225;50.730;4.244;2022-08-21T17:26:25;15.43;;;3.42;;
27869;SDS011;15225;50.730;4.244;2022-08-21T17:28:51;10.70;;;3.03;;
27869;SDS011;15225;50.730;4.244;2022-08-21T17:31:17;16.45;;;3.28;;
27869;SDS011;15225;50.730;4.244;2022-08-21T17:33:47;13.85;;;3.30;;
27869;SDS011;15225;50.730;4.244;2022-08-21T17:36:18;8.98;;;2.78;;
27869;SDS011;15225;50.730;4.244;2022-08-21T17:38:45;9.57;;;2.55;;
27869;SDS011;15225;50.730;4.244;2022-08-21T17:41:11;12.02;;;2.78;;
27869;SDS011;15225;50.730;4.244;2022-08-21T17:43:38;15.73;;;3.25;;
27869;SDS011;15225;50.730;4.244;2022-08-21T17:46:05;10.52;;;2.83;;
27869;SDS011;15225;50.730;4.244;2022-08-21T17:48:31;14.18;;;3.35;;
27869;SDS011;15225;50.730;4.244;2022-08-21T17:50:57;8.85;;;3.45;;
27869;SDS011;15225;50.730;4.244;2022-08-21T17:53:22;8.80;;;2.88;;
27869;SDS011;15225;50.730;4.244;2022-08-21T17:55:48;12.80;;;2.90;;
27869;SDS011;15225;50.730;4.244;2022-08-21T17:58:15;6.85;;;2.40;;
27869;SDS011;15225;50.730;4.244;2022-08-21T18:00:42;10.07;;;4.07;;
27869;SDS011;15225;50.730;4.244;2022-08-21T18:03:09;16.08;;;3.35;;
27869;SDS011;15225;50.730;4.244;2022-08-21T18:05:56;14.38;;;2.85;;
27869;SDS011;15225;50.730;4.244;2022-08-21T18:08:23;8.88;;;2.80;;
27869;SDS011;15225;50.730;4.244;2022-08-21T18:10:49;10.63;;;3.33;;
27869;SDS011;15225;50.730;4.244;2022-08-21T18:13:16;8.98;;;2.65;;
27869;SDS011;15225;50.730;4.244;2022-08-21T18:15:52;15.85;;;2.63;;
27869;SDS011;15225;50.730;4.244;2022-08-21T18:18:19;12.98;;;3.10;;
27869;SDS011;15225;50.730;4.244;2022-08-21T18:20:45;13.05;;;3.35;;
27869;SDS011;15225;50.730;4.244;2022-08-21T18:23:11;13.50;;;3.70;;
27869;SDS011;15225;50.730;4.244;2022-08-21T18:25:38;14.30;;;3.60;;
27869;SDS011;15225;50.730;4.244;2022-08-21T18:28:06;16.42;;;4.22;;
27869;SDS011;15225;50.730;4.244;2022-08-21T18:30:33;16.38;;;4.28;;
27869;SDS011;15225;50.730;4.244;2022-08-21T18:33:04;13.43;;;5.20;;
27869;SDS011;15225;50.730;4.244;2022-08-21T18:35:31;13.52;;;5.10;;
27869;SDS011;15225;50.730;4.244;2022-08-21T18:37:57;13.18;;;4.28;;
27869;SDS011;15225;50.730;4.244;2022-08-21T18:40:22;18.17;;;5.30;;
27869;SDS011;15225;50.730;4.244;2022-08-21T18:42:48;12.13;;;3.47;;
27869;SDS011;15225;50.730;4.244;2022-08-21T18:45:15;15.88;;;3.53;;
27869;SDS011;15225;50.730;4.244;2022-08-21T18:47:44;14.15;;;3.78;;
27869;SDS011;15225;50.730;4.244;2022-08-21T18:50:14;13.45;;;3.35;;
27869;SDS011;15225;50.730;4.244;2022-08-21T18:52:42;12.65;;;3.30;;
27869;SDS011;15225;50.730;4.244;2022-08-21T18:55:10;13.05;;;3.20;;
27869;SDS011;15225;50.730;4.244;2022-08-21T18:57:37;15.55;;;3.88;;
27869;SDS011;15225;50.730;4.244;2022-08-21T19:00:06;10.20;;;3.08;;
27869;SDS011;15225;50.730;4.244;2022-08-21T19:02:38;9.45;;;2.97;;
27869;SDS011;15225;50.730;4.244;2022-08-21T19:05:05;17.52;;;7.82;;
27869;SDS011;15225;50.730;4.244;2022-08-21T19:07:33;31.15;;;15.48;;
27869;SDS011;15225;50.730;4.244;2022-08-21T19:09:59;17.00;;;8.50;;
27869;SDS011;15225;50.730;4.244;2022-08-21T19:12:25;14.93;;;6.57;;
27869;SDS011;15225;50.730;4.244;2022-08-21T19:14:52;13.35;;;4.15;;
27869;SDS011;15225;50.730;4.244;2022-08-21T19:17:20;14.60;;;4.05;;
27869;SDS011;15225;50.730;4.244;2022-08-21T19:19:46;12.48;;;3.60;;
27869;SDS011;15225;50.730;4.244;2022-08-21T19:22:13;13.57;;;3.70;;
27869;SDS011;15225;50.730;4.244;2022-08-21T19:24:39;13.82;;;3.55;;
27869;SDS011;15225;50.730;4.244;2022-08-21T19:27:06;10.48;;;3.90;;
27869;SDS011;15225;50.730;4.244;2022-08-21T19:29:33;16.52;;;4.07;;
27869;SDS011;15225;50.730;4.244;2022-08-21T19:32:00;9.57;;;2.97;;
27869;SDS011;15225;50.730;4.244;2022-08-21T19:34:28;10.43;;;3.40;;
27869;SDS011;15225;50.730;4.244;2022-08-21T19:36:54;14.15;;;3.47;;
27869;SDS011;15225;50.730;4.244;2022-08-21T19:39:21;12.73;;;2.67;;
27869;SDS011;15225;50.730;4.244;2022-08-21T19:41:48;10.20;;;2.72;;
27869;SDS011;15225;50.730;4.244;2022-08-21T19:46:45;8.45;;;2.63;;
27869;SDS011;15225;50.730;4.244;2022-08-21T19:49:14;10.70;;;2.90;;
27869;SDS011;15225;50.730;4.244;2022-08-21T19:54:16;10.43;;;2.47;;
27869;SDS011;15225;50.730;4.244;2022-08-21T19:56:54;13.57;;;3.30;;
27869;SDS011;15225;50.730;4.244;2022-08-21T19:59:21;11.52;;;2.53;;
27869;SDS011;15225;50.730;4.244;2022-08-21T20:01:47;12.20;;;3.00;;
27869;SDS011;15225;50.730;4.244;2022-08-21T20:04:14;11.52;;;3.05;;
27869;SDS011;15225;50.730;4.244;2022-08-21T20:06:40;17.30;;;2.80;;
27869;SDS011;15225;50.730;4.244;2022-08-21T20:09:06;10.88;;;3.00;;
27869;SDS011;15225;50.730;4.244;2022-08-21T20:11:53;9.48;;;3.55;;
27869;SDS011;15225;50.730;4.244;2022-08-21T20:14:23;18.00;;;2.75;;
27869;SDS011;15225;50.730;4.244;2022-08-21T20:16:51;9.40;;;3.13;;
27869;SDS011;15225;50.730;4.244;2022-08-21T20:19:18;17.50;;;3.65;;
27869;SDS011;15225;50.730;4.244;2022-08-21T20:21:44;11.52;;;3.20;;
27869;SDS011;15225;50.730;4.244;2022-08-21T20:24:11;11.30;;;3.25;;
27869;SDS011;15225;50.730;4.244;2022-08-21T20:26:38;11.68;;;2.97;;
27869;SDS011;15225;50.730;4.244;2022-08-21T20:29:04;13.15;;;3.00;;
27869;SDS011;15225;50.730;4.244;2022-08-21T20:31:31;11.00;;;2.83;;
27869;SDS011;15225;50.730;4.244;2022-08-21T20:33:57;64.88;;;6.97;;
27869;SDS011;15225;50.730;4.244;2022-08-21T20:36:23;9.40;;;2.90;;
27869;SDS011;15225;50.730;4.244;2022-08-21T20:38:49;9.65;;;3.05;;
27869;SDS011;15225;50.730;4.244;2022-08-21T20:41:16;11.30;;;3.00;;
27869;SDS011;15225;50.730;4.244;2022-08-21T20:43:43;10.10;;;2.78;;
27869;SDS011;15225;50.730;4.244;2022-08-21T20:46:09;10.65;;;3.35;;
27869;SDS011;15225;50.730;4.244;2022-08-21T20:48:37;11.15;;;3.45;;
27869;SDS011;15225;50.730;4.244;2022-08-21T21:02:55;12.32;;;3.10;;
27869;SDS011;15225;50.730;4.244;2022-08-21T21:05:32;8.38;;;3.30;;
27869;SDS011;15225;50.730;4.244;2022-08-21T21:08:49;13.27;;;3.25;;
27869;SDS011;15225;50.730;4.244;2022-08-21T21:11:44;24.00;;;3.75;;
27869;SDS011;15225;50.730;4.244;2022-08-21T21:16:54;11.00;;;3.13;;
27869;SDS011;15225;50.730;4.244;2022-08-21T21:19:27;8.98;;;3.30;;
27869;SDS011;15225;50.730;4.244;2022-08-21T21:22:12;13.15;;;3.28;;
